EST,Max TemperatureF,Mean TemperatureF,Min TemperatureF,Max Dew PointF,MeanDew PointF,Min DewpointF,Max Humidity, Mean Humidity, Min Humidity, Max Sea Level PressureIn, Mean Sea Level PressureIn, Min Sea Level PressureIn, Max VisibilityMiles, Mean VisibilityMiles, Min VisibilityMiles, Max Wind SpeedMPH, Mean Wind SpeedMPH, Max Gust SpeedMPH,PrecipitationIn, CloudCover, Events, WindDirDegrees
2013-1-1,31,26,20,25,14,10,73,61,46,30.17,30.09,30.02,10,10,10,10,7,,0.00,5,,307
2013-1-2,29,23,17,20,16,11,80,71,60,30.20,30.15,30.08,10,10,7,13,5,17,0.00,6,Snow,242
2013-1-3,32,26,20,28,19,9,83,72,58,30.17,30.12,30.05,10,9,5,16,8,21,0.00,8,,239
2013-1-4,34,31,27,26,22,19,79,68,56,30.18,30.08,30.00,10,10,10,21,11,29,0.00,3,,243
2013-1-5,35,28,21,32,24,19,93,82,68,30.29,30.18,30.04,10,6,2,12,6,18,0.00,3,Snow,218
2013-1-6,38,36,35,35,32,28,91,82,70,30.27,30.00,29.92,10,7,2,14,10,18,0.00,8,Rain-Snow,245
2013-1-7,38,35,32,30,26,24,84,70,61,30.39,30.28,30.17,10,10,10,21,7,29,0.00,3,,223
2013-1-8,40,34,28,30,27,24,84,76,61,30.26,30.22,30.17,10,8,5,13,8,17,0.00,0,,210
2013-1-9,50,42,33,34,28,20,86,61,32,30.44,30.17,30.05,10,9,7,22,10,37,0.00,1,Rain,247
2013-1-10,44,37,30,35,30,26,87,74,52,30.60,30.48,30.23,10,10,5,10,4,,0.00,1,Rain,127
2013-1-11,59,48,38,52,44,34,94,87,73,30.21,29.93,29.78,10,7,2,16,7,23,0.00,5,Rain,171
2013-1-12,61,54,47,52,48,45,93,84,66,29.96,29.91,29.85,10,8,4,14,7,18,0.00,0,,211
2013-1-13,51,44,35,51,39,31,94,86,78,30.03,29.88,29.71,10,8,2,16,8,24,0.00,8,Rain-Snow,321
2013-1-14,34,29,23,30,19,16,85,67,54,30.44,30.32,30.05,10,10,10,21,11,29,0.00,5,,285
2013-1-15,32,26,20,21,18,14,87,69,47,30.45,30.35,30.16,10,10,10,6,1,,0.00,0,,209
2013-1-16,42,34,25,28,19,11,86,59,28,30.16,29.94,29.81,10,10,10,17,5,28,0.00,3,,244
2013-1-17,38,30,21,29,20,2,81,59,38,30.32,30.15,29.95,10,10,10,21,11,29,0.00,5,Snow,304
2013-1-18,38,28,18,22,14,5,71,56,40,30.45,30.28,29.98,10,10,4,22,8,36,0.00,3,Snow,220
2013-1-19,49,43,37,34,28,23,63,55,47,29.98,29.83,29.57,10,10,10,22,15,33,0.00,2,,221
2013-1-20,47,34,20,33,9,4,65,48,40,30.18,30.02,29.55,10,10,2,33,19,48,0.00,7,Snow,281
2013-1-21,21,14,8,16,5,-6,82,59,41,30.15,30.03,29.95,10,8,0,18,8,28,0.00,6,Snow,275
2013-1-22,13,8,3,2,-6,-13,67,53,41,30.27,30.22,30.10,10,10,7,20,10,26,0.00,4,,280
2013-1-23,20,14,7,14,5,-3,83,67,47,30.28,30.19,30.08,10,8,2,12,6,17,0.00,7,Snow,239
2013-1-24,23,18,13,14,5,-1,81,61,37,30.58,30.45,30.11,10,10,2,15,7,22,0.00,1,Snow,336
2013-1-25,24,20,16,19,13,4,85,73,55,30.51,30.20,30.03,10,6,0,9,2,16,0.00,8,Snow,171
2013-1-26,30,25,20,20,17,13,88,72,51,30.45,30.26,30.06,10,10,7,14,4,18,0.00,5,Snow,297
2013-1-27,32,24,16,30,19,13,92,75,51,30.49,30.40,30.17,10,8,0,15,3,21,0.00,4,Snow,158
2013-1-28,46,38,32,44,37,30,96,92,84,30.18,29.98,29.86,10,4,0,12,6,17,0.00,8,Fog-Rain-Snow,226
2013-1-29,57,47,37,56,46,34,95,93,84,30.05,29.81,29.51,10,3,0,14,3,21,0.00,8,Fog-Rain,183
2013-1-30,63,50,37,57,50,32,95,87,80,29.50,29.27,29.13,10,9,2,24,12,40,0.00,8,Rain,220
2013-1-31,36,28,20,31,16,11,86,65,52,29.87,29.63,29.24,10,8,0,28,18,39,0.00,8,Snow,269